createdAt,value
2023-05-10T00:01:09.806Z,12.30
2023-05-10T00:03:36.544Z,9.98
2023-05-10T00:06:03.571Z,10.82
2023-05-10T00:08:30.251Z,10.80
2023-05-10T00:10:57.140Z,14.40
2023-05-10T00:13:23.801Z,11.40
2023-05-10T00:15:50.565Z,10.20
2023-05-10T00:18:17.209Z,12.80
2023-05-10T00:20:43.794Z,10.53
2023-05-10T00:23:10.369Z,14.40
2023-05-10T00:25:37.002Z,12.57
2023-05-10T00:28:03.763Z,12.40
2023-05-10T00:30:30.665Z,12.52
2023-05-10T00:32:57.379Z,10.50
2023-05-10T00:35:24.252Z,10.73
2023-05-10T00:37:50.889Z,11.85
2023-05-10T00:44:06.558Z,15.82
2023-05-10T00:46:33.521Z,11.60
2023-05-10T00:49:00.308Z,10.75
2023-05-10T00:51:27.019Z,10.82
2023-05-10T00:53:53.887Z,11.85
2023-05-10T00:56:23.884Z,11.52
2023-05-10T00:58:51.012Z,10.93
2023-05-10T01:01:17.754Z,11.00
2023-05-10T01:03:45.512Z,12.93
2023-05-10T01:06:12.257Z,12.15
2023-05-10T01:08:39.111Z,11.70
2023-05-10T01:11:05.743Z,14.23
2023-05-10T01:13:40.533Z,11.60
2023-05-10T01:16:07.858Z,10.98
2023-05-10T01:18:37.729Z,12.50
2023-05-10T01:21:15.997Z,9.80
2023-05-10T01:24:10.729Z,11.17
2023-05-10T01:27:01.402Z,11.85
2023-05-10T01:30:14.622Z,11.73
2023-05-10T01:37:00.377Z,10.05
2023-05-10T01:39:32.091Z,11.33
2023-05-10T01:42:11.292Z,11.68
2023-05-10T01:45:03.388Z,12.32
2023-05-10T01:47:51.180Z,12.45
2023-05-10T01:50:26.336Z,12.32
2023-05-10T01:52:56.153Z,11.30
2023-05-10T01:55:27.382Z,11.02
2023-05-10T01:58:09.039Z,11.85
2023-05-10T02:00:36.758Z,11.65
2023-05-10T02:03:07.615Z,13.68
2023-05-10T02:05:36.222Z,10.67
2023-05-10T02:08:07.166Z,11.45
2023-05-10T02:10:36.101Z,12.23
2023-05-10T02:13:04.374Z,12.38
2023-05-10T02:15:32.430Z,11.68
2023-05-10T02:18:00.993Z,12.90
2023-05-10T02:20:28.234Z,10.25
2023-05-10T02:22:56.857Z,12.23
2023-05-10T02:25:25.080Z,11.80
2023-05-10T02:27:54.726Z,29.67
2023-05-10T02:30:22.622Z,33.30
2023-05-10T02:32:51.619Z,54.10
2023-05-10T02:35:18.624Z,69.75
2023-05-10T02:37:47.727Z,62.15
2023-05-10T02:40:16.911Z,44.58
2023-05-10T02:42:45.466Z,26.07
2023-05-10T02:45:16.255Z,17.25
2023-05-10T02:47:43.183Z,14.88
2023-05-10T02:50:10.540Z,17.92
2023-05-10T02:52:43.586Z,27.30
2023-05-10T02:55:13.618Z,40.93
2023-05-10T02:57:47.236Z,33.53
2023-05-10T03:00:14.068Z,20.73
2023-05-10T03:02:40.831Z,15.43
2023-05-10T03:05:08.397Z,14.77
2023-05-10T03:07:35.333Z,12.77
2023-05-10T03:10:02.361Z,12.80
2023-05-10T03:12:49.112Z,15.40
2023-05-10T03:15:55.890Z,13.90
2023-05-10T03:18:28.782Z,17.50
2023-05-10T03:21:00.668Z,24.30
2023-05-10T03:23:42.816Z,23.58
2023-05-10T03:26:09.853Z,21.77
2023-05-10T03:28:37.624Z,21.20
2023-05-10T03:31:07.085Z,25.25
2023-05-10T03:33:34.493Z,25.37
2023-05-10T03:36:01.320Z,23.40
2023-05-10T03:38:29.728Z,18.58
2023-05-10T03:40:57.125Z,18.52
2023-05-10T03:43:23.796Z,16.25
2023-05-10T03:45:50.517Z,17.20
2023-05-10T03:48:17.236Z,18.25
2023-05-10T03:50:43.882Z,16.98
2023-05-10T03:53:10.495Z,17.50
2023-05-10T03:55:37.499Z,19.80
2023-05-10T03:58:04.275Z,18.10
2023-05-10T04:00:31.476Z,12.23
2023-05-10T04:02:58.505Z,13.65
2023-05-10T04:05:25.299Z,16.88
2023-05-10T04:07:53.313Z,11.20
2023-05-10T04:10:20.055Z,10.13
2023-05-10T04:12:46.755Z,9.60
2023-05-10T04:15:13.479Z,12.25
2023-05-10T04:17:40.235Z,11.18
2023-05-10T04:20:07.598Z,11.95
2023-05-10T04:22:34.179Z,11.83
2023-05-10T04:25:00.846Z,10.80
2023-05-10T04:27:28.035Z,15.93
2023-05-10T04:29:54.657Z,11.02
2023-05-10T04:32:21.529Z,13.38
2023-05-10T04:34:48.314Z,11.17
2023-05-10T04:37:14.932Z,12.25
2023-05-10T04:39:42.504Z,11.70
2023-05-10T04:42:09.631Z,10.73
2023-05-10T04:44:37.102Z,14.05
2023-05-10T04:47:04.021Z,9.53
2023-05-10T04:49:30.955Z,9.55
2023-05-10T04:51:57.650Z,10.48
2023-05-10T04:54:24.605Z,10.25
2023-05-10T04:56:51.209Z,11.90
2023-05-10T04:59:18.105Z,12.00
2023-05-10T05:01:44.856Z,10.07
2023-05-10T05:04:11.520Z,12.30
2023-05-10T05:06:38.063Z,12.38
2023-05-10T05:09:04.589Z,9.20
2023-05-10T05:11:31.379Z,10.17
2023-05-10T05:13:59.991Z,8.70
2023-05-10T05:16:27.058Z,10.63
2023-05-10T05:18:53.728Z,12.07
2023-05-10T05:21:20.911Z,10.38
2023-05-10T05:23:47.708Z,10.93
2023-05-10T05:26:14.327Z,11.55
2023-05-10T05:28:40.925Z,7.82
2023-05-10T05:31:11.196Z,9.55
2023-05-10T05:33:38.214Z,10.07
2023-05-10T05:36:06.287Z,9.13
2023-05-10T05:38:33.137Z,9.48
2023-05-10T05:40:59.691Z,11.20
2023-05-10T05:43:26.256Z,10.35
2023-05-10T05:45:56.106Z,10.10
2023-05-10T05:48:22.793Z,9.83
2023-05-10T05:50:49.382Z,14.18
2023-05-10T05:53:16.739Z,10.43
2023-05-10T05:55:53.441Z,11.35
2023-05-10T05:58:19.961Z,11.43
2023-05-10T06:00:46.532Z,10.17
2023-05-10T06:03:13.403Z,10.20
2023-05-10T06:05:40.089Z,10.75
2023-05-10T06:08:06.902Z,10.93
2023-05-10T06:10:33.471Z,9.05
2023-05-10T06:13:00.133Z,8.33
2023-05-10T06:15:27.064Z,9.10
2023-05-10T06:17:53.669Z,8.57
2023-05-10T06:20:20.369Z,10.07
2023-05-10T06:22:47.024Z,8.93
2023-05-10T06:25:15.296Z,7.67
2023-05-10T06:27:41.948Z,9.60
2023-05-10T06:30:13.422Z,9.85
2023-05-10T06:32:40.765Z,8.48
2023-05-10T06:35:07.986Z,9.13
2023-05-10T06:37:35.401Z,9.90
2023-05-10T06:40:02.850Z,8.45
2023-05-10T06:42:29.503Z,9.88
2023-05-10T06:44:56.094Z,9.73
2023-05-10T06:47:23.083Z,9.27
2023-05-10T06:49:49.707Z,12.10
2023-05-10T06:52:16.390Z,11.07
2023-05-10T06:54:42.991Z,11.45
2023-05-10T06:57:23.470Z,9.38
2023-05-10T06:59:57.188Z,8.40
2023-05-10T07:02:24.173Z,10.50
2023-05-10T07:04:52.785Z,8.48
2023-05-10T07:07:19.887Z,9.52
2023-05-10T07:09:46.918Z,10.07
2023-05-10T07:12:15.403Z,9.27
2023-05-10T07:14:43.053Z,14.57
2023-05-10T07:17:10.288Z,10.40
2023-05-10T07:19:37.152Z,9.75
2023-05-10T07:22:03.924Z,10.55
2023-05-10T07:24:32.116Z,12.77
2023-05-10T07:26:58.745Z,10.20
2023-05-10T07:29:25.350Z,11.30
2023-05-10T07:31:52.296Z,10.73
2023-05-10T07:34:18.987Z,9.52
2023-05-10T07:36:45.648Z,10.63
2023-05-10T07:39:16.227Z,15.53
2023-05-10T07:41:47.919Z,9.98
2023-05-10T07:44:14.513Z,15.10
2023-05-10T07:46:41.433Z,10.80
2023-05-10T07:49:08.119Z,13.63
2023-05-10T07:51:34.738Z,12.27
2023-05-10T07:54:01.336Z,10.90
2023-05-10T07:56:32.759Z,11.20
2023-05-10T07:59:00.755Z,10.23
2023-05-10T08:01:31.021Z,14.25
2023-05-10T08:03:57.660Z,11.77
2023-05-10T08:06:24.337Z,10.85
2023-05-10T08:08:51.582Z,11.00
2023-05-10T08:11:18.690Z,12.90
2023-05-10T08:13:45.932Z,10.68
2023-05-10T08:16:13.843Z,9.87
2023-05-10T08:18:41.159Z,12.38
2023-05-10T08:21:08.028Z,13.10
2023-05-10T08:23:34.859Z,12.20
2023-05-10T08:26:01.511Z,13.57
2023-05-10T08:28:28.174Z,11.83
2023-05-10T08:30:55.077Z,11.35
2023-05-10T08:33:21.644Z,12.52
2023-05-10T08:35:48.279Z,11.20
2023-05-10T08:38:14.971Z,11.20
2023-05-10T08:40:43.644Z,11.50
2023-05-10T08:43:13.131Z,10.77
2023-05-10T08:45:42.249Z,12.43
2023-05-10T08:48:11.273Z,10.68
2023-05-10T08:50:40.230Z,11.68
2023-05-10T08:53:14.534Z,12.43
2023-05-10T08:55:43.182Z,11.65
2023-05-10T08:58:10.619Z,14.40
2023-05-10T09:00:38.310Z,13.32
2023-05-10T09:03:06.230Z,12.05
2023-05-10T09:05:32.979Z,14.87
2023-05-10T09:08:02.633Z,12.73
2023-05-10T09:10:31.603Z,12.25
2023-05-10T09:12:59.630Z,11.13
2023-05-10T09:15:26.924Z,12.85
2023-05-10T09:17:53.731Z,11.40
2023-05-10T09:20:20.632Z,13.88
2023-05-10T09:22:47.362Z,12.95
2023-05-10T09:25:16.409Z,11.30
2023-05-10T09:27:47.743Z,10.43
2023-05-10T09:30:28.727Z,12.43
2023-05-10T09:32:56.931Z,11.43
2023-05-10T09:35:28.844Z,13.23
2023-05-10T09:37:58.769Z,12.57
2023-05-10T09:40:27.652Z,15.57
2023-05-10T09:43:06.997Z,12.37
2023-05-10T09:45:38.245Z,13.90
2023-05-10T09:48:05.429Z,11.05
2023-05-10T09:50:32.087Z,11.73
2023-05-10T09:53:04.181Z,12.40
2023-05-10T09:55:36.866Z,10.13
2023-05-10T09:58:03.472Z,12.13
2023-05-10T10:00:36.418Z,10.93
2023-05-10T10:03:04.256Z,10.20
2023-05-10T10:05:32.331Z,9.68
2023-05-10T10:07:59.758Z,12.23
2023-05-10T10:10:27.217Z,11.45
2023-05-10T10:12:54.382Z,12.13
2023-05-10T10:15:24.615Z,10.20
2023-05-10T10:17:52.706Z,12.65
2023-05-10T10:20:21.172Z,12.63
2023-05-10T10:22:48.552Z,12.02
2023-05-10T10:25:19.853Z,11.45
2023-05-10T10:27:52.545Z,9.82
2023-05-10T10:30:44.611Z,13.10
2023-05-10T10:33:29.944Z,10.57
2023-05-10T10:36:00.059Z,14.02
2023-05-10T10:38:26.820Z,11.68
2023-05-10T10:41:03.808Z,21.15
2023-05-10T10:43:31.207Z,13.82
2023-05-10T10:46:18.817Z,10.80
2023-05-10T10:48:50.689Z,9.15
2023-05-10T10:51:17.536Z,9.32
2023-05-10T10:53:44.701Z,10.93
2023-05-10T10:56:14.708Z,12.60
2023-05-10T10:58:42.394Z,9.47
2023-05-10T11:01:16.745Z,11.15
2023-05-10T11:04:03.722Z,11.57
2023-05-10T11:06:34.750Z,9.20
2023-05-10T11:09:25.510Z,8.38
2023-05-10T11:11:56.212Z,10.03
2023-05-10T11:14:23.608Z,10.25
2023-05-10T11:16:50.523Z,12.43
2023-05-10T11:19:18.916Z,10.75
2023-05-10T11:21:50.990Z,12.77
2023-05-10T11:24:23.501Z,12.07
2023-05-10T11:26:54.676Z,15.02
2023-05-10T11:29:21.401Z,13.95
2023-05-10T11:31:49.275Z,11.90
2023-05-10T11:34:34.587Z,10.35
2023-05-10T11:37:01.848Z,10.83
2023-05-10T11:39:32.515Z,11.18
2023-05-10T11:41:59.654Z,10.30
2023-05-10T11:44:33.941Z,10.25
2023-05-10T11:47:02.102Z,12.73
2023-05-10T11:49:28.800Z,13.53
2023-05-10T11:52:05.261Z,10.05
2023-05-10T11:54:32.152Z,10.45
2023-05-10T11:56:58.722Z,10.57
2023-05-10T11:59:26.239Z,11.88
2023-05-10T12:01:52.922Z,10.27
2023-05-10T12:04:20.138Z,11.38
2023-05-10T12:06:47.613Z,12.77
2023-05-10T12:09:14.170Z,11.80
2023-05-10T12:11:44.359Z,11.55
2023-05-10T12:14:11.857Z,15.23
2023-05-10T12:16:38.611Z,10.95
2023-05-10T12:19:06.460Z,14.40
2023-05-10T12:21:34.262Z,14.18
2023-05-10T12:24:03.358Z,15.82
2023-05-10T12:26:30.723Z,12.33
2023-05-10T12:29:13.966Z,14.25
2023-05-10T12:31:57.777Z,11.93
2023-05-10T12:34:42.349Z,11.93
2023-05-10T12:37:08.901Z,12.85
2023-05-10T12:39:43.195Z,12.33
2023-05-10T12:42:10.577Z,13.75
2023-05-10T12:44:37.477Z,12.48
2023-05-10T12:47:04.078Z,11.60
2023-05-10T12:49:30.874Z,11.10
2023-05-10T12:51:57.499Z,11.23
2023-05-10T12:54:24.161Z,12.18
2023-05-10T12:56:50.735Z,12.50
2023-05-10T12:59:17.443Z,12.15
2023-05-10T13:01:44.198Z,11.98
2023-05-10T13:04:11.045Z,10.53
2023-05-10T13:06:37.756Z,12.57
2023-05-10T13:09:04.639Z,13.43
2023-05-10T13:11:31.400Z,11.68
2023-05-10T13:13:58.113Z,11.18
2023-05-10T13:16:24.770Z,11.00
2023-05-10T13:18:51.625Z,12.57
2023-05-10T13:21:18.327Z,9.52
2023-05-10T13:23:45.023Z,8.20
2023-05-10T13:26:11.582Z,9.25
2023-05-10T13:28:39.694Z,9.23
2023-05-10T13:31:06.354Z,9.88
2023-05-10T13:33:32.941Z,8.77
2023-05-10T13:35:59.570Z,10.30
2023-05-10T13:38:26.695Z,11.30
2023-05-10T13:40:53.812Z,10.50
2023-05-10T13:43:20.812Z,10.23
2023-05-10T13:45:47.377Z,8.80
2023-05-10T13:48:14.127Z,9.15
2023-05-10T13:50:41.165Z,9.88
2023-05-10T13:53:07.795Z,10.30
2023-05-10T13:55:34.698Z,10.30
2023-05-10T13:58:01.269Z,8.77
2023-05-10T14:00:28.172Z,15.80
2023-05-10T14:02:55.058Z,39.65
2023-05-10T14:05:25.515Z,12.40
2023-05-10T14:07:52.955Z,9.82
2023-05-10T14:10:19.638Z,8.10
2023-05-10T14:12:46.232Z,13.70
2023-05-10T14:15:12.926Z,9.00
2023-05-10T14:17:39.526Z,7.33
2023-05-10T14:20:07.013Z,7.82
2023-05-10T14:22:33.757Z,8.65
2023-05-10T14:25:00.729Z,9.90
2023-05-10T14:27:27.341Z,8.55
2023-05-10T14:29:54.569Z,12.40
2023-05-10T14:32:21.203Z,8.45
2023-05-10T14:34:47.970Z,8.25
2023-05-10T14:37:16.195Z,9.00
2023-05-10T14:39:43.391Z,8.48
2023-05-10T14:42:10.156Z,9.27
2023-05-10T14:44:36.790Z,8.10
2023-05-10T14:47:03.446Z,9.65
2023-05-10T14:49:30.188Z,11.13
2023-05-10T14:51:56.825Z,9.65
2023-05-10T14:54:23.449Z,9.20
2023-05-10T14:56:51.022Z,8.50
2023-05-10T14:59:17.803Z,9.05
2023-05-10T15:01:45.193Z,8.82
2023-05-10T15:04:13.918Z,9.02
2023-05-10T15:06:40.913Z,9.80
2023-05-10T15:09:07.486Z,9.07
2023-05-10T15:11:34.135Z,10.82
2023-05-10T15:14:00.745Z,8.50
2023-05-10T15:16:27.565Z,7.55
2023-05-10T15:18:54.256Z,9.37
2023-05-10T15:21:20.835Z,11.35
2023-05-10T15:23:47.416Z,9.63
2023-05-10T15:26:14.033Z,9.40
2023-05-10T15:28:40.792Z,9.80
2023-05-10T15:31:07.391Z,12.10
2023-05-10T15:33:33.972Z,13.68
2023-05-10T15:36:00.606Z,9.77
2023-05-10T15:38:27.241Z,9.57
2023-05-10T15:40:57.544Z,10.10
2023-05-10T15:43:24.166Z,10.73
2023-05-10T15:45:51.375Z,10.45
2023-05-10T15:48:18.010Z,9.85
2023-05-10T15:50:44.874Z,10.52
2023-05-10T15:53:11.602Z,11.60
2023-05-10T15:55:38.140Z,9.00
2023-05-10T15:58:04.745Z,9.93
2023-05-10T16:00:31.443Z,9.48
2023-05-10T16:02:58.379Z,8.40
2023-05-10T16:05:27.397Z,11.43
2023-05-10T16:07:54.975Z,8.97
2023-05-10T16:10:21.589Z,8.70
2023-05-10T16:12:48.265Z,8.13
2023-05-10T16:15:15.214Z,8.00
2023-05-10T16:17:42.141Z,9.68
2023-05-10T16:20:09.207Z,8.23
2023-05-10T16:22:36.303Z,6.97
2023-05-10T16:25:02.950Z,7.93
2023-05-10T16:27:30.361Z,6.88
2023-05-10T16:29:57.069Z,7.07
2023-05-10T16:32:23.778Z,9.40
2023-05-10T16:34:50.527Z,10.00
2023-05-10T16:37:17.540Z,10.23
2023-05-10T16:39:44.270Z,8.40
2023-05-10T16:42:11.019Z,6.53
2023-05-10T16:44:37.695Z,9.07
2023-05-10T16:47:04.235Z,5.80
2023-05-10T16:49:30.887Z,9.60
2023-05-10T16:51:57.495Z,8.15
2023-05-10T16:54:24.009Z,7.65
2023-05-10T16:56:50.701Z,7.63
2023-05-10T16:59:17.426Z,8.23
2023-05-10T17:01:44.871Z,9.55
2023-05-10T17:04:11.667Z,8.40
2023-05-10T17:06:38.650Z,7.05
2023-05-10T17:09:05.772Z,9.63
2023-05-10T17:11:32.589Z,9.38
2023-05-10T17:13:59.668Z,8.00
2023-05-10T17:16:26.853Z,8.73
2023-05-10T17:18:53.615Z,7.28
2023-05-10T17:21:20.384Z,7.47
2023-05-10T17:23:46.955Z,6.50
2023-05-10T17:26:13.513Z,6.57
2023-05-10T17:28:40.600Z,6.20
2023-05-10T17:31:07.536Z,6.40
2023-05-10T17:33:34.148Z,8.33
2023-05-10T17:36:00.779Z,7.78
2023-05-10T17:38:27.377Z,11.65
2023-05-10T17:40:53.871Z,7.25
2023-05-10T17:43:21.268Z,8.00
2023-05-10T17:45:49.394Z,7.77
2023-05-10T17:48:15.980Z,8.00
2023-05-10T17:50:43.455Z,7.78
2023-05-10T17:53:10.665Z,7.15
2023-05-10T17:55:41.103Z,9.20
2023-05-10T17:58:08.430Z,10.87
2023-05-10T18:00:35.892Z,8.88
2023-05-10T18:03:03.714Z,8.27
2023-05-10T18:05:30.903Z,7.45
2023-05-10T18:07:57.605Z,9.23
2023-05-10T18:10:24.749Z,7.90
2023-05-10T18:12:52.363Z,7.80
2023-05-10T18:15:19.043Z,8.45
2023-05-10T18:17:45.877Z,9.88
2023-05-10T18:20:12.989Z,8.85
2023-05-10T18:22:39.900Z,7.17
2023-05-10T18:25:07.099Z,7.03
2023-05-10T18:27:34.318Z,7.65
2023-05-10T18:30:00.949Z,7.65
2023-05-10T18:32:27.969Z,7.13
2023-05-10T18:34:55.797Z,8.53
2023-05-10T18:37:22.772Z,12.13
2023-05-10T18:39:49.854Z,19.15
2023-05-10T18:42:16.413Z,20.33
2023-05-10T18:44:42.997Z,17.67
2023-05-10T18:47:09.588Z,15.33
2023-05-10T18:49:36.187Z,15.60
2023-05-10T18:52:02.804Z,16.30
2023-05-10T18:54:29.980Z,12.27
2023-05-10T18:56:57.374Z,15.10
2023-05-10T18:59:25.556Z,12.07
2023-05-10T19:01:53.657Z,12.57
2023-05-10T19:04:21.722Z,9.15
2023-05-10T19:06:48.406Z,11.25
2023-05-10T19:09:15.028Z,8.98
2023-05-10T19:11:43.239Z,10.10
2023-05-10T19:14:09.867Z,10.73
2023-05-10T19:16:36.809Z,12.70
2023-05-10T19:19:03.898Z,13.18
2023-05-10T19:21:32.255Z,11.10
2023-05-10T19:23:59.739Z,12.07
2023-05-10T19:26:26.296Z,8.73
2023-05-10T19:28:53.092Z,9.60
2023-05-10T19:31:20.886Z,11.23
2023-05-10T19:33:47.549Z,18.95
2023-05-10T19:36:14.146Z,20.10
2023-05-10T19:38:40.807Z,15.55
2023-05-10T19:41:07.396Z,14.43
2023-05-10T19:43:39.812Z,12.50
2023-05-10T19:46:06.552Z,12.88
2023-05-10T19:48:33.241Z,16.67
2023-05-10T19:51:04.754Z,14.32
2023-05-10T19:53:32.770Z,12.38
2023-05-10T19:56:04.260Z,10.48
2023-05-10T19:58:31.184Z,13.73
2023-05-10T20:00:57.865Z,11.80
2023-05-10T20:03:24.573Z,9.85
2023-05-10T20:05:51.243Z,11.23
2023-05-10T20:08:17.909Z,10.15
2023-05-10T20:10:44.613Z,10.68
2023-05-10T20:13:11.127Z,11.77
2023-05-10T20:15:37.801Z,10.13
2023-05-10T20:18:04.667Z,12.45
2023-05-10T20:20:31.712Z,12.18
2023-05-10T20:22:58.319Z,11.98
2023-05-10T20:25:24.933Z,11.43
2023-05-10T20:27:51.691Z,9.15
2023-05-10T20:30:18.978Z,8.90
2023-05-10T20:32:45.948Z,8.77
2023-05-10T20:35:12.605Z,7.65
2023-05-10T20:37:39.607Z,8.20
2023-05-10T20:40:06.860Z,9.77
2023-05-10T20:42:33.597Z,8.63
2023-05-10T20:45:00.199Z,9.05
2023-05-10T20:47:27.250Z,7.82
2023-05-10T20:49:53.982Z,8.07
2023-05-10T20:52:21.746Z,8.10
2023-05-10T20:54:49.423Z,7.97
2023-05-10T20:57:16.064Z,6.70
2023-05-10T20:59:42.958Z,7.00
2023-05-10T21:02:09.716Z,7.03
2023-05-10T21:04:36.685Z,6.57
2023-05-10T21:07:03.314Z,6.82
2023-05-10T21:09:30.020Z,5.63
2023-05-10T21:11:57.792Z,7.70
2023-05-10T21:14:24.321Z,6.20
2023-05-10T21:16:51.333Z,6.60
2023-05-10T21:19:17.971Z,5.07
2023-05-10T21:21:44.580Z,8.32
2023-05-10T21:24:11.251Z,5.47
2023-05-10T21:26:38.062Z,5.30
2023-05-10T21:29:04.937Z,5.88
2023-05-10T21:31:32.067Z,5.68
2023-05-10T21:33:58.686Z,4.65
2023-05-10T21:36:25.656Z,5.93
2023-05-10T21:38:52.194Z,6.43
2023-05-10T21:41:19.011Z,5.43
2023-05-10T21:43:45.707Z,5.78
2023-05-10T21:46:14.187Z,5.38
2023-05-10T21:48:40.998Z,5.35
2023-05-10T21:51:07.651Z,5.07
2023-05-10T21:53:36.503Z,6.63
2023-05-10T21:56:03.295Z,6.70
2023-05-10T21:58:29.909Z,5.45
2023-05-10T22:00:57.084Z,5.05
2023-05-10T22:03:23.917Z,5.13
2023-05-10T22:05:50.775Z,7.05
2023-05-10T22:08:17.338Z,4.72
2023-05-10T22:10:44.036Z,5.93
2023-05-10T22:13:11.701Z,5.43
2023-05-10T22:15:38.350Z,5.33
2023-05-10T22:18:05.194Z,5.57
2023-05-10T22:20:32.559Z,5.88
2023-05-10T22:22:59.198Z,5.68
2023-05-10T22:25:25.827Z,5.65
2023-05-10T22:27:52.385Z,6.43
2023-05-10T22:30:20.043Z,6.50
2023-05-10T22:32:47.161Z,6.13
2023-05-10T22:35:13.854Z,7.05
2023-05-10T22:37:40.444Z,5.80
2023-05-10T22:40:07.673Z,5.97
2023-05-10T22:42:34.315Z,6.13
2023-05-10T22:45:01.050Z,6.05
2023-05-10T22:47:27.728Z,6.18
2023-05-10T22:49:55.266Z,5.80
2023-05-10T22:52:21.866Z,7.10
2023-05-10T22:54:48.501Z,6.10
2023-05-10T22:57:16.080Z,6.40
2023-05-10T22:59:43.004Z,5.13
2023-05-10T23:02:09.954Z,5.55
2023-05-10T23:04:37.033Z,5.97
2023-05-10T23:07:03.706Z,5.20
2023-05-10T23:09:30.330Z,6.22
2023-05-10T23:11:57.383Z,5.25
2023-05-10T23:17:41.373Z,6.37
2023-05-10T23:20:08.727Z,6.05
2023-05-10T23:22:35.567Z,5.38
2023-05-10T23:25:02.204Z,5.22
2023-05-10T23:27:30.530Z,6.80
2023-05-10T23:29:57.813Z,7.33
2023-05-10T23:32:24.609Z,6.35
2023-05-10T23:34:51.193Z,6.30
2023-05-10T23:37:17.919Z,7.35
2023-05-10T23:39:44.767Z,6.97
2023-05-10T23:42:11.445Z,7.73
2023-05-10T23:44:38.020Z,6.40
2023-05-10T23:47:04.660Z,7.40
2023-05-10T23:49:31.210Z,7.32
2023-05-10T23:51:57.864Z,6.82
2023-05-10T23:54:24.496Z,8.97
2023-05-10T23:56:51.568Z,8.82
2023-05-10T23:59:18.179Z,7.55
